Time;durP1;ratioP1;P1;durP2;ratioP2;P2;SDS_P1;SDS_P2;PMS_P1;PMS_P2;Temp;Humidity;BMP_temperature;BMP_pressure;BME280_temperature;BME280_humidity;BME280_pressure;Samples;Min_cycle;Max_cycle;Signal;HPM_P1;HPM_P2
2022/07/14 00:01:07;;;;;;;;;;;17.90;99.90;;;;;;5064770;28;19917;-68
2022/07/14 00:03:32;;;;;;;;;;;17.90;99.90;;;;;;5063320;28;19912;-69
2022/07/14 00:05:58;;;;;;;;;;;17.80;99.90;;;;;;5070218;28;19970;-69
2022/07/14 00:08:23;;;;;;;;;;;17.70;99.90;;;;;;5048692;28;20284;-69
2022/07/14 00:10:49;;;;;;;;;;;17.50;99.90;;;;;;5042779;28;19919;-69
2022/07/14 00:13:15;;;;;;;;;;;17.40;99.90;;;;;;5043598;28;20480;-69
2022/07/14 00:15:40;;;;;;;;;;;17.30;99.90;;;;;;5067018;28;19921;-69
2022/07/14 00:18:06;;;;;;;;;;;17.30;99.90;;;;;;5064127;28;19912;-69
2022/07/14 00:20:31;;;;;;;;;;;17.30;99.90;;;;;;5067045;28;20356;-69
2022/07/14 00:22:57;;;;;;;;;;;17.30;99.90;;;;;;5048662;28;20283;-69
2022/07/14 00:25:25;;;;;;;;;;;17.30;99.90;;;;;;5065801;28;19912;-69
2022/07/14 00:27:51;;;;;;;;;;;17.30;99.90;;;;;;5048231;28;20438;-69
2022/07/14 00:30:17;;;;;;;;;;;17.40;99.90;;;;;;5066239;28;19908;-69
2022/07/14 00:32:42;;;;;;;;;;;17.40;99.90;;;;;;5066798;28;19935;-69
2022/07/14 00:35:08;;;;;;;;;;;17.50;99.90;;;;;;5065086;28;19984;-69
2022/07/14 00:37:34;;;;;;;;;;;17.50;99.90;;;;;;5065995;28;19913;-69
2022/07/14 00:40:02;;;;;;;;;;;17.40;99.90;;;;;;5066166;28;19940;-69
2022/07/14 00:42:32;;;;;;;;;;;17.40;99.90;;;;;;5062254;28;19916;-69
2022/07/14 00:44:58;;;;;;;;;;;17.30;99.90;;;;;;5047169;28;20331;-69
2022/07/14 00:47:24;;;;;;;;;;;17.20;99.90;;;;;;5046372;28;19923;-69
2022/07/14 00:49:53;;;;;;;;;;;17.20;99.90;;;;;;5066140;28;19912;-69
2022/07/14 00:52:19;;;;;;;;;;;17.10;99.90;;;;;;5062849;28;19912;-69
2022/07/14 00:54:45;;;;;;;;;;;17.00;99.90;;;;;;5065642;28;19962;-69
2022/07/14 00:57:10;;;;;;;;;;;17.00;99.90;;;;;;5064572;28;19916;-69
2022/07/14 00:59:36;;;;;;;;;;;16.90;99.90;;;;;;5065895;28;19959;-69
2022/07/14 01:02:01;;;;;;;;;;;16.80;99.90;;;;;;5047437;28;19959;-69
2022/07/14 01:04:27;;;;;;;;;;;16.80;99.90;;;;;;5049133;28;20007;-69
2022/07/14 01:06:52;;;;;;;;;;;16.70;99.90;;;;;;5047175;28;19916;-69
2022/07/14 01:09:18;;;;;;;;;;;16.60;99.90;;;;;;5065675;28;19919;-69
2022/07/14 01:11:43;;;;;;;;;;;16.50;99.90;;;;;;5044479;28;19913;-69
2022/07/14 01:14:09;;;;;;;;;;;16.50;99.90;;;;;;5065641;28;20003;-69
2022/07/14 01:16:34;;;;;;;;;;;16.50;99.90;;;;;;5064916;28;19962;-69
2022/07/14 01:19:00;;;;;;;;;;;16.50;99.90;;;;;;5063068;28;19985;-69
2022/07/14 01:21:26;;;;;;;;;;;16.40;99.90;;;;;;5044654;28;20423;-69
2022/07/14 01:23:51;;;;;;;;;;;16.30;99.90;;;;;;5047118;28;19924;-69
2022/07/14 01:26:17;;;;;;;;;;;16.50;99.90;;;;;;5065945;28;19913;-69
2022/07/14 01:28:42;;;;;;;;;;;16.40;99.90;;;;;;5065450;28;19970;-69
2022/07/14 01:31:08;;;;;;;;;;;16.20;99.90;;;;;;5062738;28;19950;-69
2022/07/14 01:33:33;;;;;;;;;;;16.20;99.90;;;;;;5064477;28;20409;-69
2022/07/14 01:35:58;;;;;;;;;;;16.20;99.90;;;;;;5063206;28;19955;-69
2022/07/14 01:38:24;;;;;;;;;;;16.20;99.90;;;;;;5066977;28;20326;-69
2022/07/14 01:40:49;;;;;;;;;;;16.10;99.90;;;;;;5059845;28;19927;-69
2022/07/14 01:43:15;;;;;;;;;;;16.00;99.90;;;;;;5065286;28;20322;-69
2022/07/14 01:45:41;;;;;;;;;;;15.80;99.90;;;;;;5067595;28;19916;-69
2022/07/14 01:48:06;;;;;;;;;;;15.70;99.90;;;;;;5067611;28;19962;-69
2022/07/14 01:50:32;;;;;;;;;;;15.70;99.90;;;;;;5068796;28;19915;-69
2022/07/14 01:52:57;;;;;;;;;;;15.80;99.90;;;;;;5067962;28;20280;-69
2022/07/14 01:55:23;;;;;;;;;;;15.80;99.90;;;;;;5068339;28;19908;-69
2022/07/14 01:57:48;;;;;;;;;;;15.70;99.90;;;;;;5068264;28;19966;-69
2022/07/14 02:00:14;;;;;;;;;;;15.80;99.90;;;;;;5047390;28;19933;-69
2022/07/14 02:02:40;;;;;;;;;;;15.70;99.90;;;;;;5068126;28;20769;-69
2022/07/14 02:05:07;;;;;;;;;;;15.70;99.90;;;;;;5068316;28;20322;-69
2022/07/14 02:07:33;;;;;;;;;;;15.70;99.90;;;;;;5068925;28;19916;-69
2022/07/14 02:12:43;;;;;;;;;;;15.70;99.90;;;;;;5070109;28;19962;-69
2022/07/14 02:15:08;;;;;;;;;;;15.70;99.90;;;;;;5071577;28;19916;-69
2022/07/14 02:17:34;;;;;;;;;;;15.70;99.90;;;;;;5053964;28;20319;-69
2022/07/14 02:19:59;;;;;;;;;;;15.70;99.90;;;;;;5052932;28;19909;-69
2022/07/14 02:22:25;;;;;;;;;;;15.70;99.90;;;;;;5071612;28;19912;-69
2022/07/14 02:24:50;;;;;;;;;;;15.80;99.90;;;;;;5074790;28;20481;-69
2022/07/14 02:27:16;;;;;;;;;;;15.80;99.90;;;;;;5072003;28;19922;-69
2022/07/14 02:29:41;;;;;;;;;;;15.80;99.90;;;;;;5069755;28;19916;-69
2022/07/14 02:32:07;;;;;;;;;;;15.90;99.90;;;;;;5070951;28;20402;-69
2022/07/14 02:34:32;;;;;;;;;;;15.80;99.90;;;;;;5071479;28;19935;-69
2022/07/14 02:36:59;;;;;;;;;;;15.80;99.90;;;;;;5070991;28;19912;-69
2022/07/14 02:39:24;;;;;;;;;;;15.80;99.90;;;;;;5053251;28;20368;-69
2022/07/14 02:41:50;;;;;;;;;;;15.90;99.90;;;;;;5071122;28;19931;-69
2022/07/14 02:44:15;;;;;;;;;;;15.90;99.90;;;;;;5063584;28;19916;-69
2022/07/14 02:46:41;;;;;;;;;;;15.80;99.90;;;;;;5070799;28;19927;-69
2022/07/14 02:49:06;;;;;;;;;;;15.80;99.90;;;;;;5070591;28;20027;-69
2022/07/14 02:51:32;;;;;;;;;;;15.80;99.90;;;;;;5051981;28;19913;-69
2022/07/14 02:53:57;;;;;;;;;;;15.80;99.90;;;;;;5052310;28;20192;-69
2022/07/14 02:56:23;;;;;;;;;;;15.90;99.90;;;;;;5073378;28;20637;-69
2022/07/14 02:58:48;;;;;;;;;;;16.00;99.90;;;;;;5068928;28;20462;-68
2022/07/14 03:01:14;;;;;;;;;;;16.00;99.90;;;;;;5069480;28;20066;-69
2022/07/14 03:03:39;;;;;;;;;;;15.90;99.90;;;;;;5050884;28;19908;-69
2022/07/14 03:06:09;;;;;;;;;;;15.90;99.90;;;;;;5050863;28;19923;-69
2022/07/14 03:08:35;;;;;;;;;;;15.90;99.90;;;;;;5051784;28;19955;-69
2022/07/14 03:11:00;;;;;;;;;;;15.90;99.90;;;;;;5068056;28;20449;-69
2022/07/14 03:13:26;;;;;;;;;;;15.90;99.90;;;;;;5074619;28;20041;-69
2022/07/14 03:15:51;;;;;;;;;;;15.90;99.90;;;;;;5052848;28;19909;-69
2022/07/14 03:18:17;;;;;;;;;;;16.00;99.90;;;;;;5068590;28;20392;-69
2022/07/14 03:20:43;;;;;;;;;;;15.90;99.90;;;;;;5051546;28;19908;-69
2022/07/14 03:23:08;;;;;;;;;;;16.00;99.90;;;;;;5049579;28;19917;-69
2022/07/14 03:25:34;;;;;;;;;;;15.90;99.90;;;;;;5072784;28;19948;-69
2022/07/14 03:27:59;;;;;;;;;;;15.90;99.90;;;;;;5070912;28;19919;-69
2022/07/14 03:30:25;;;;;;;;;;;15.90;99.90;;;;;;5069847;28;20320;-69
2022/07/14 03:32:50;;;;;;;;;;;15.90;99.90;;;;;;5048893;28;20362;-69
2022/07/14 03:35:16;;;;;;;;;;;15.80;99.90;;;;;;5070034;28;19919;-69
2022/07/14 03:37:42;;;;;;;;;;;15.80;99.90;;;;;;5072619;28;19924;-69
2022/07/14 03:40:08;;;;;;;;;;;15.70;99.90;;;;;;5067086;28;19974;-68
2022/07/14 03:42:33;;;;;;;;;;;15.70;99.90;;;;;;5070855;28;20093;-69
2022/07/14 03:44:58;;;;;;;;;;;15.80;99.90;;;;;;5051014;28;19963;-68
2022/07/14 03:47:24;;;;;;;;;;;15.80;99.90;;;;;;5070029;28;19919;-68
2022/07/14 03:49:50;;;;;;;;;;;15.90;99.90;;;;;;5069149;28;20264;-68
2022/07/14 03:52:15;;;;;;;;;;;16.10;99.90;;;;;;5068495;28;20340;-69
2022/07/14 03:54:44;;;;;;;;;;;16.10;99.90;;;;;;5069817;28;20039;-69
2022/07/14 03:57:10;;;;;;;;;;;16.20;99.90;;;;;;5069437;28;19924;-69
2022/07/14 03:59:40;;;;;;;;;;;16.10;99.90;;;;;;5069691;28;19977;-69
2022/07/14 04:02:07;;;;;;;;;;;16.20;99.90;;;;;;5065221;28;19916;-70
2022/07/14 04:04:32;;;;;;;;;;;16.40;99.90;;;;;;5070002;28;19920;-69
2022/07/14 04:06:58;;;;;;;;;;;16.30;99.90;;;;;;5069015;28;19916;-69
2022/07/14 04:09:23;;;;;;;;;;;16.20;99.90;;;;;;5069294;28;19912;-69
2022/07/14 04:11:49;;;;;;;;;;;16.30;99.90;;;;;;5049111;28;20308;-68
2022/07/14 04:14:14;;;;;;;;;;;16.30;99.90;;;;;;5050232;28;20416;-69
2022/07/14 04:16:40;;;;;;;;;;;16.20;99.90;;;;;;5072485;28;19908;-69
2022/07/14 04:19:07;;;;;;;;;;;16.10;99.90;;;;;;5050946;28;20225;-69
2022/07/14 04:21:34;;;;;;;;;;;16.00;99.90;;;;;;5069461;28;19985;-69
2022/07/14 04:23:59;;;;;;;;;;;16.10;99.90;;;;;;5068529;28;19912;-69
2022/07/14 04:26:25;;;;;;;;;;;16.20;99.90;;;;;;5067122;28;20010;-69
2022/07/14 04:28:50;;;;;;;;;;;16.20;99.90;;;;;;5066966;28;19923;-69
2022/07/14 04:31:16;;;;;;;;;;;16.20;99.90;;;;;;5068928;28;20011;-69
2022/07/14 04:33:41;;;;;;;;;;;16.40;99.90;;;;;;5070827;28;19916;-69
2022/07/14 04:36:08;;;;;;;;;;;16.30;99.90;;;;;;5068537;28;20295;-68
2022/07/14 04:38:33;;;;;;;;;;;16.20;99.90;;;;;;5068333;28;20382;-68
2022/07/14 04:41:00;;;;;;;;;;;16.20;99.90;;;;;;5048536;28;20010;-69
2022/07/14 04:43:26;;;;;;;;;;;16.20;99.90;;;;;;5068785;28;20236;-69
2022/07/14 04:45:52;;;;;;;;;;;16.20;99.90;;;;;;5068125;28;20055;-69
2022/07/14 04:48:17;;;;;;;;;;;16.10;99.90;;;;;;5062314;28;19962;-69
2022/07/14 04:53:27;;;;;;;;;;;16.10;99.90;;;;;;5065532;28;19984;-68
2022/07/14 04:55:56;;;;;;;;;;;16.00;99.90;;;;;;5048175;28;19916;-69
2022/07/14 04:58:25;;;;;;;;;;;16.00;99.90;;;;;;5063088;28;19955;-68
2022/07/14 05:00:51;;;;;;;;;;;16.00;99.90;;;;;;5067114;28;20454;-69
2022/07/14 05:03:17;;;;;;;;;;;16.00;99.90;;;;;;5064526;28;19909;-68
2022/07/14 05:05:42;;;;;;;;;;;16.00;99.90;;;;;;5063095;28;19920;-68
2022/07/14 05:08:08;;;;;;;;;;;16.00;99.90;;;;;;5044368;28;19990;-68
2022/07/14 05:10:33;;;;;;;;;;;16.00;99.90;;;;;;5062630;28;20490;-69
2022/07/14 05:12:59;;;;;;;;;;;16.10;99.90;;;;;;5067683;28;19931;-69
2022/07/14 05:15:24;;;;;;;;;;;16.10;99.90;;;;;;5067292;28;20280;-69
2022/07/14 05:17:50;;;;;;;;;;;16.20;99.90;;;;;;5066887;28;20324;-68
2022/07/14 05:20:15;;;;;;;;;;;16.30;99.90;;;;;;5070608;28;20349;-68
2022/07/14 05:22:42;;;;;;;;;;;16.30;99.90;;;;;;5048440;28;19916;-69
2022/07/14 05:25:08;;;;;;;;;;;16.50;99.90;;;;;;5067685;28;19912;-69
2022/07/14 05:27:35;;;;;;;;;;;16.40;99.90;;;;;;5044361;28;19924;-68
2022/07/14 05:30:00;;;;;;;;;;;16.20;99.90;;;;;;5064719;28;20317;-68
2022/07/14 05:32:26;;;;;;;;;;;16.30;99.90;;;;;;5048630;28;19909;-68
2022/07/14 05:34:51;;;;;;;;;;;16.40;99.90;;;;;;5048830;28;19920;-68
2022/07/14 05:37:17;;;;;;;;;;;16.50;99.90;;;;;;5061323;28;20387;-69
2022/07/14 05:39:42;;;;;;;;;;;16.50;99.90;;;;;;5062182;28;20065;-69
2022/07/14 05:42:08;;;;;;;;;;;16.60;99.90;;;;;;5066820;28;20007;-69
2022/07/14 05:44:35;;;;;;;;;;;16.60;99.90;;;;;;5067877;28;19921;-69
2022/07/14 05:47:00;;;;;;;;;;;16.70;99.90;;;;;;5043126;28;20386;-69
2022/07/14 05:49:26;;;;;;;;;;;16.70;99.90;;;;;;5052267;28;19995;-69
2022/07/14 05:51:51;;;;;;;;;;;16.80;99.90;;;;;;5071079;28;19966;-69
2022/07/14 05:54:17;;;;;;;;;;;16.80;99.90;;;;;;5071612;28;19912;-69
2022/07/14 05:56:42;;;;;;;;;;;16.60;99.90;;;;;;5051258;28;19913;-69
2022/07/14 05:59:08;;;;;;;;;;;16.70;99.90;;;;;;5051365;28;20023;-69
2022/07/14 06:01:33;;;;;;;;;;;16.70;99.90;;;;;;5068402;28;19923;-68
2022/07/14 06:03:59;;;;;;;;;;;16.70;99.90;;;;;;5069024;28;19909;-69
2022/07/14 06:06:25;;;;;;;;;;;16.70;99.90;;;;;;5067864;28;20027;-68
2022/07/14 06:08:50;;;;;;;;;;;16.80;99.90;;;;;;5066325;28;20381;-69
2022/07/14 06:11:16;;;;;;;;;;;17.20;99.90;;;;;;5068012;28;20015;-69
2022/07/14 06:13:42;;;;;;;;;;;17.20;99.90;;;;;;5069339;28;19917;-69
2022/07/14 06:16:08;;;;;;;;;;;17.40;99.90;;;;;;5068085;28;20087;-69
2022/07/14 06:18:34;;;;;;;;;;;17.40;99.90;;;;;;5051988;28;19908;-69
2022/07/14 06:21:00;;;;;;;;;;;17.50;99.90;;;;;;5050949;28;20296;-69
2022/07/14 06:23:25;;;;;;;;;;;17.60;99.90;;;;;;5070188;28;20382;-69
2022/07/14 06:25:51;;;;;;;;;;;17.80;99.90;;;;;;5070341;28;19916;-69
2022/07/14 06:28:16;;;;;;;;;;;17.80;99.90;;;;;;5043253;28;20284;-69
2022/07/14 06:30:42;;;;;;;;;;;17.80;99.90;;;;;;5065846;28;19916;-68
2022/07/14 06:33:08;;;;;;;;;;;17.90;99.90;;;;;;5067950;28;19915;-69
2022/07/14 06:35:36;;;;;;;;;;;18.00;99.90;;;;;;5069672;28;19920;-69
2022/07/14 06:38:02;;;;;;;;;;;18.10;99.90;;;;;;5066723;28;19912;-69
2022/07/14 06:40:27;;;;;;;;;;;18.20;99.90;;;;;;5069806;28;20272;-69
2022/07/14 06:42:53;;;;;;;;;;;18.10;99.90;;;;;;5065018;28;19913;-69
2022/07/14 06:45:18;;;;;;;;;;;18.10;99.90;;;;;;5049919;28;19927;-69
2022/07/14 06:47:44;;;;;;;;;;;18.30;99.90;;;;;;5069616;28;19936;-69
2022/07/14 06:50:09;;;;;;;;;;;18.60;99.90;;;;;;5068784;28;19916;-69
2022/07/14 06:52:35;;;;;;;;;;;18.50;99.90;;;;;;5068979;28;20003;-69
2022/07/14 06:55:03;;;;;;;;;;;18.30;99.90;;;;;;5069252;28;19916;-69
2022/07/14 06:57:28;;;;;;;;;;;18.50;99.90;;;;;;5050653;28;19930;-68
2022/07/14 06:59:54;;;;;;;;;;;18.60;99.90;;;;;;5050534;28;19924;-68
2022/07/14 07:02:19;;;;;;;;;;;18.90;99.90;;;;;;5065385;28;19947;-68
2022/07/14 07:04:46;;;;;;;;;;;19.00;99.90;;;;;;5069099;28;19912;-69
2022/07/14 07:07:12;;;;;;;;;;;19.30;99.90;;;;;;5065722;28;19916;-69
2022/07/14 07:09:37;;;;;;;;;;;19.00;99.90;;;;;;5068968;28;20327;-69
2022/07/14 07:12:03;;;;;;;;;;;18.90;99.90;;;;;;5048724;28;19942;-69
2022/07/14 07:14:28;;;;;;;;;;;19.20;99.90;;;;;;5069122;28;19943;-69
2022/07/14 07:16:54;;;;;;;;;;;19.20;99.90;;;;;;5069294;28;20360;-69
2022/07/14 07:19:20;;;;;;;;;;;19.00;99.90;;;;;;5049533;28;19923;-69
2022/07/14 07:21:46;;;;;;;;;;;19.10;99.90;;;;;;5069325;28;20053;-70
2022/07/14 07:24:11;;;;;;;;;;;19.30;99.90;;;;;;5068157;28;19974;-68
2022/07/14 07:26:38;;;;;;;;;;;19.70;99.90;;;;;;5051162;28;20004;-68
2022/07/14 07:29:04;;;;;;;;;;;19.30;99.90;;;;;;5068989;28;19909;-68
2022/07/14 07:31:30;;;;;;;;;;;19.40;99.90;;;;;;5051172;28;20553;-68
2022/07/14 07:33:56;;;;;;;;;;;19.70;99.90;;;;;;5068824;28;20305;-69
2022/07/14 07:36:22;;;;;;;;;;;20.20;99.90;;;;;;5069230;28;19919;-69
2022/07/14 07:38:47;;;;;;;;;;;20.00;99.90;;;;;;5066953;28;20015;-69
2022/07/14 07:41:13;;;;;;;;;;;20.20;99.90;;;;;;5065185;28;20371;-70
2022/07/14 07:43:38;;;;;;;;;;;20.30;99.90;;;;;;5050441;28;20376;-70
2022/07/14 07:46:05;;;;;;;;;;;20.10;99.90;;;;;;5048246;28;20384;-68
2022/07/14 07:48:31;;;;;;;;;;;19.70;99.90;;;;;;5067230;28;19952;-68
2022/07/14 07:50:57;;;;;;;;;;;19.30;99.90;;;;;;5067540;28;20002;-69
2022/07/14 07:53:22;;;;;;;;;;;19.00;99.90;;;;;;5064355;28;19928;-70
2022/07/14 07:55:48;;;;;;;;;;;19.20;99.90;;;;;;5067667;28;20118;-68
2022/07/14 07:58:13;;;;;;;;;;;19.10;99.90;;;;;;5067557;28;19920;-68
2022/07/14 08:00:39;;;;;;;;;;;19.30;99.90;;;;;;5067641;28;19963;-68
2022/07/14 08:03:05;;;;;;;;;;;19.80;99.90;;;;;;5047942;28;19913;-68
2022/07/14 08:05:31;;;;;;;;;;;20.20;99.90;;;;;;5067347;28;20412;-67
2022/07/14 08:07:56;;;;;;;;;;;20.10;99.90;;;;;;5049940;28;19919;-69
2022/07/14 08:10:24;;;;;;;;;;;20.20;99.90;;;;;;5048170;28;21563;-68
2022/07/14 08:12:50;;;;;;;;;;;20.20;99.90;;;;;;5058851;28;19970;-67
2022/07/14 08:15:16;;;;;;;;;;;20.50;99.90;;;;;;5067491;28;19916;-68
2022/07/14 08:17:41;;;;;;;;;;;20.10;99.90;;;;;;5068224;28;19916;-67
2022/07/14 08:20:10;;;;;;;;;;;20.20;99.90;;;;;;5067471;28;19952;-68
2022/07/14 08:22:36;;;;;;;;;;;20.30;99.90;;;;;;5063780;28;19936;-67
2022/07/14 08:25:03;;;;;;;;;;;20.50;99.90;;;;;;5066815;28;19912;-68
2022/07/14 08:27:28;;;;;;;;;;;21.00;99.90;;;;;;5067817;28;20008;-68
2022/07/14 08:29:54;;;;;;;;;;;22.20;99.90;;;;;;5068112;28;19977;-68
2022/07/14 08:32:33;;;;;;;;;;;23.10;99.90;;;;;;5066584;28;19916;-70
2022/07/14 08:34:59;;;;;;;;;;;22.90;99.90;;;;;;5063717;28;19934;-68
2022/07/14 08:37:25;;;;;;;;;;;23.70;99.90;;;;;;5066550;28;20022;-70
2022/07/14 08:39:50;;;;;;;;;;;24.20;99.70;;;;;;5067079;28;19956;-68
2022/07/14 08:42:16;;;;;;;;;;;24.00;99.20;;;;;;5043641;28;19966;-68
2022/07/14 08:44:42;;;;;;;;;;;24.00;99.80;;;;;;5067023;28;19943;-68
2022/07/14 08:47:08;;;;;;;;;;;23.80;99.40;;;;;;5062981;28;19919;-68
2022/07/14 08:49:34;;;;;;;;;;;24.10;99.10;;;;;;5066605;28;20420;-70
2022/07/14 08:52:00;;;;;;;;;;;23.50;99.60;;;;;;5065845;28;20098;-68
2022/07/14 08:54:25;;;;;;;;;;;23.20;99.90;;;;;;5067227;28;19981;-68
2022/07/14 08:56:51;;;;;;;;;;;22.80;99.80;;;;;;5062263;28;20303;-68
2022/07/14 08:59:17;;;;;;;;;;;22.50;98.80;;;;;;5065415;28;19920;-68
2022/07/14 09:01:45;;;;;;;;;;;23.50;96.10;;;;;;5066455;28;19919;-68
2022/07/14 09:04:12;;;;;;;;;;;24.20;94.20;;;;;;5045614;28;19912;-68
2022/07/14 09:06:47;;;;;;;;;;;24.50;92.50;;;;;;5046450;28;19919;-68
2022/07/14 09:09:18;;;;;;;;;;;24.50;93.00;;;;;;5066459;28;20372;-68
2022/07/14 09:11:54;;;;;;;;;;;24.30;93.80;;;;;;5058973;28;19936;-68
2022/07/14 09:14:20;;;;;;;;;;;24.00;92.70;;;;;;5066752;28;19981;-68
2022/07/14 09:16:46;;;;;;;;;;;24.40;91.50;;;;;;5067534;28;20012;-68
2022/07/14 09:19:13;;;;;;;;;;;24.70;89.40;;;;;;5067005;28;20487;-68
2022/07/14 09:21:40;;;;;;;;;;;24.90;88.40;;;;;;5063522;28;19934;-68
2022/07/14 09:24:06;;;;;;;;;;;24.70;86.90;;;;;;5066392;28;20259;-68
2022/07/14 09:26:33;;;;;;;;;;;24.20;85.50;;;;;;5067113;28;19917;-68
2022/07/14 09:28:59;;;;;;;;;;;24.60;85.80;;;;;;5067042;28;20308;-68
2022/07/14 09:31:29;;;;;;;;;;;25.20;81.80;;;;;;5067371;28;19963;-68
2022/07/14 09:33:55;;;;;;;;;;;25.10;82.50;;;;;;5067652;28;19909;-68
2022/07/14 09:36:26;;;;;;;;;;;25.10;84.70;;;;;;5044485;28;20124;-68
2022/07/14 09:38:55;;;;;;;;;;;23.90;89.60;;;;;;5066946;28;19931;-68
2022/07/14 09:41:21;;;;;;;;;;;23.90;91.10;;;;;;5046560;28;19912;-68
2022/07/14 09:44:06;;;;;;;;;;;24.70;89.30;;;;;;5066997;28;20615;-68
2022/07/14 09:46:51;;;;;;;;;;;24.70;88.30;;;;;;5048550;28;19958;-68
2022/07/14 09:49:17;;;;;;;;;;;25.40;86.60;;;;;;5052086;28;19908;-67
2022/07/14 09:51:52;;;;;;;;;;;25.80;85.40;;;;;;5067113;28;20272;-68
2022/07/14 09:54:36;;;;;;;;;;;26.10;84.60;;;;;;5066615;28;20628;-68
2022/07/14 09:57:03;;;;;;;;;;;26.50;84.10;;;;;;5064598;28;19912;-67
2022/07/14 09:59:28;;;;;;;;;;;25.80;82.20;;;;;;5048860;28;20348;-68
2022/07/14 10:01:54;;;;;;;;;;;25.20;81.70;;;;;;5066467;28;19924;-67
2022/07/14 10:04:21;;;;;;;;;;;24.90;83.30;;;;;;5066305;28;20424;-68
2022/07/14 10:06:47;;;;;;;;;;;24.90;81.00;;;;;;5066740;28;19920;-68
2022/07/14 10:09:13;;;;;;;;;;;25.70;78.70;;;;;;5066065;28;20224;-68
2022/07/14 10:11:39;;;;;;;;;;;25.90;78.50;;;;;;5065077;28;19912;-68
2022/07/14 10:14:05;;;;;;;;;;;26.10;74.70;;;;;;5066212;28;19916;-67
2022/07/14 10:16:32;;;;;;;;;;;26.50;73.10;;;;;;5066567;28;19913;-68
2022/07/14 10:18:58;;;;;;;;;;;26.10;74.20;;;;;;5067209;28;19915;-68
2022/07/14 10:21:24;;;;;;;;;;;26.10;75.10;;;;;;5066743;28;20063;-68
2022/07/14 10:23:50;;;;;;;;;;;27.10;73.70;;;;;;5067357;28;19912;-68
2022/07/14 10:26:17;;;;;;;;;;;26.50;74.20;;;;;;5066903;28;20395;-68
2022/07/14 10:28:42;;;;;;;;;;;26.60;70.50;;;;;;5070695;28;19953;-67
2022/07/14 10:31:26;;;;;;;;;;;26.50;71.00;;;;;;5069528;28;19938;-68
2022/07/14 10:33:52;;;;;;;;;;;26.30;69.10;;;;;;5066761;28;19924;-67
2022/07/14 10:36:19;;;;;;;;;;;26.20;70.40;;;;;;5069780;28;19909;-68
2022/07/14 10:38:44;;;;;;;;;;;27.00;71.10;;;;;;5066053;28;19988;-68
2022/07/14 10:41:25;;;;;;;;;;;27.40;68.90;;;;;;5067095;28;19924;-69
2022/07/14 10:43:53;;;;;;;;;;;27.80;69.00;;;;;;5068615;28;19923;-68
2022/07/14 10:46:32;;;;;;;;;;;27.20;69.30;;;;;;5069012;28;19913;-68
2022/07/14 10:48:58;;;;;;;;;;;26.90;68.40;;;;;;5068372;28;19917;-69
2022/07/14 10:51:27;;;;;;;;;;;26.60;70.20;;;;;;5065255;28;20394;-68
2022/07/14 10:54:13;;;;;;;;;;;26.20;70.40;;;;;;5069880;28;20187;-69
2022/07/14 10:56:39;;;;;;;;;;;26.50;71.30;;;;;;5066565;28;20297;-68
2022/07/14 10:59:24;;;;;;;;;;;26.30;70.90;;;;;;5068934;28;19931;-69
2022/07/14 11:02:08;;;;;;;;;;;26.20;70.10;;;;;;5064675;28;19919;-67
2022/07/14 11:04:52;;;;;;;;;;;27.50;67.20;;;;;;5043439;28;19909;-67
2022/07/14 11:07:36;;;;;;;;;;;27.50;65.20;;;;;;5064119;28;20371;-68
2022/07/14 11:10:04;;;;;;;;;;;27.60;65.30;;;;;;5066627;28;19921;-68
2022/07/14 11:12:30;;;;;;;;;;;27.90;64.30;;;;;;5064776;28;19920;-68
2022/07/14 11:14:55;;;;;;;;;;;28.30;64.20;;;;;;5068336;28;20235;-67
2022/07/14 11:17:34;;;;;;;;;;;27.80;64.10;;;;;;5050152;28;20375;-68
2022/07/14 11:20:00;;;;;;;;;;;28.30;62.70;;;;;;5068206;28;19923;-68
2022/07/14 11:22:25;;;;;;;;;;;28.40;64.50;;;;;;5067376;28;20296;-68
2022/07/14 11:24:55;;;;;;;;;;;27.70;66.20;;;;;;5067272;28;19924;-68
2022/07/14 11:27:33;;;;;;;;;;;27.90;65.00;;;;;;5067789;28;19938;-67
2022/07/14 11:30:16;;;;;;;;;;;27.60;66.20;;;;;;5066134;28;20295;-68
2022/07/14 11:32:42;;;;;;;;;;;28.10;64.20;;;;;;5065961;28;19965;-68
2022/07/14 11:38:20;;;;;;;;;;;28.30;63.70;;;;;;5066764;28;20023;-67
2022/07/14 11:40:53;;;;;;;;;;;27.90;64.10;;;;;;5048644;28;19959;-68
2022/07/14 11:43:30;;;;;;;;;;;28.00;63.20;;;;;;5065531;28;19912;-68
2022/07/14 11:46:00;;;;;;;;;;;27.90;63.90;;;;;;5068497;28;19916;-67
2022/07/14 11:48:30;;;;;;;;;;;28.40;62.70;;;;;;5066956;28;19974;-67
2022/07/14 11:51:01;;;;;;;;;;;29.10;62.50;;;;;;5067948;28;20046;-68
2022/07/14 11:53:27;;;;;;;;;;;28.20;62.60;;;;;;5049395;28;20018;-68
2022/07/14 11:55:54;;;;;;;;;;;28.80;62.30;;;;;;5066196;28;19999;-68
2022/07/14 11:58:22;;;;;;;;;;;29.00;62.50;;;;;;5067128;28;19952;-67
2022/07/14 12:00:52;;;;;;;;;;;28.50;63.00;;;;;;5070419;28;20015;-68
2022/07/14 12:03:18;;;;;;;;;;;27.80;64.70;;;;;;5047178;28;19966;-68
2022/07/14 12:05:43;;;;;;;;;;;28.90;63.70;;;;;;5065553;28;19908;-68
2022/07/14 12:08:09;;;;;;;;;;;28.60;62.30;;;;;;5066324;28;20098;-68
2022/07/14 12:10:42;;;;;;;;;;;28.50;62.10;;;;;;5047645;28;19912;-68
2022/07/14 12:13:08;;;;;;;;;;;28.60;62.50;;;;;;5066466;28;19924;-67
2022/07/14 12:15:36;;;;;;;;;;;28.50;64.40;;;;;;5049112;28;19909;-68
2022/07/14 12:18:02;;;;;;;;;;;29.10;64.30;;;;;;5066794;28;19924;-68
2022/07/14 12:20:35;;;;;;;;;;;29.60;62.30;;;;;;5049045;28;19908;-68
2022/07/14 12:23:00;;;;;;;;;;;29.50;62.50;;;;;;5066398;28;19908;-68
2022/07/14 12:25:33;;;;;;;;;;;30.30;60.80;;;;;;5066175;28;19920;-67
2022/07/14 12:27:59;;;;;;;;;;;29.80;62.20;;;;;;5067922;28;19939;-68
2022/07/14 12:30:25;;;;;;;;;;;30.40;60.70;;;;;;5066983;28;19913;-70
2022/07/14 12:32:54;;;;;;;;;;;30.30;60.50;;;;;;5067467;28;19920;-68
2022/07/14 12:35:23;;;;;;;;;;;29.80;61.60;;;;;;5065684;28;19985;-68
2022/07/14 12:37:50;;;;;;;;;;;28.80;62.60;;;;;;5067202;28;20422;-68
2022/07/14 12:40:17;;;;;;;;;;;28.30;64.10;;;;;;5047854;28;19975;-68
2022/07/14 12:42:43;;;;;;;;;;;28.30;63.40;;;;;;5064411;28;19946;-67
2022/07/14 12:45:09;;;;;;;;;;;28.30;64.30;;;;;;5066073;28;19913;-67
2022/07/14 12:47:51;;;;;;;;;;;28.40;63.60;;;;;;5057955;28;19913;-66
2022/07/14 12:50:23;;;;;;;;;;;28.00;61.20;;;;;;5065415;28;19975;-67
2022/07/14 12:52:53;;;;;;;;;;;28.70;61.10;;;;;;5063976;28;19919;-67
2022/07/14 12:55:32;;;;;;;;;;;28.10;61.00;;;;;;5065701;28;19913;-67
2022/07/14 12:58:02;;;;;;;;;;;28.30;61.60;;;;;;5066758;28;19909;-67
2022/07/14 13:00:30;;;;;;;;;;;28.30;59.70;;;;;;5062871;28;19974;-67
2022/07/14 13:03:15;;;;;;;;;;;27.50;61.60;;;;;;5066710;28;19912;-66
2022/07/14 13:05:50;;;;;;;;;;;27.90;62.00;;;;;;5064412;28;19996;-66
2022/07/14 13:08:35;;;;;;;;;;;28.60;61.70;;;;;;5047969;28;19908;-67
2022/07/14 13:11:02;;;;;;;;;;;28.70;60.00;;;;;;5061788;28;20334;-67
2022/07/14 13:13:30;;;;;;;;;;;29.90;59.80;;;;;;5064295;28;19920;-67
2022/07/14 13:16:15;;;;;;;;;;;30.70;58.60;;;;;;5065203;28;19913;-67
2022/07/14 13:18:59;;;;;;;;;;;30.00;59.00;;;;;;5064753;28;19912;-67
2022/07/14 13:21:43;;;;;;;;;;;29.10;59.40;;;;;;5064123;28;20007;-67
2022/07/14 13:24:13;;;;;;;;;;;29.60;60.00;;;;;;5064221;28;20271;-67
2022/07/14 13:26:38;;;;;;;;;;;29.00;59.60;;;;;;5066336;28;20007;-67
2022/07/14 13:29:04;;;;;;;;;;;29.60;60.40;;;;;;5065884;28;20083;-68
2022/07/14 13:31:29;;;;;;;;;;;31.30;59.00;;;;;;5066247;28;20069;-67
2022/07/14 13:33:58;;;;;;;;;;;30.80;57.50;;;;;;5048302;28;19934;-67
2022/07/14 13:36:24;;;;;;;;;;;28.80;59.60;;;;;;5065731;28;19978;-67
2022/07/14 13:38:49;;;;;;;;;;;27.50;59.80;;;;;;5066139;28;20401;-66
2022/07/14 13:41:16;;;;;;;;;;;27.50;60.90;;;;;;5063927;28;19912;-66
2022/07/14 13:43:42;;;;;;;;;;;27.40;60.00;;;;;;5065718;28;20352;-67
2022/07/14 13:46:09;;;;;;;;;;;28.70;60.20;;;;;;5063768;28;20008;-67
2022/07/14 13:48:36;;;;;;;;;;;28.90;58.60;;;;;;5066441;28;19919;-66
2022/07/14 13:53:46;;;;;;;;;;;28.70;58.40;;;;;;5066436;28;19935;-67
2022/07/14 13:56:11;;;;;;;;;;;28.30;57.90;;;;;;5065725;28;19913;-66
2022/07/14 13:58:37;;;;;;;;;;;27.00;60.20;;;;;;5061896;28;19931;-66
2022/07/14 14:01:02;;;;;;;;;;;27.00;61.70;;;;;;5066163;28;20326;-66
2022/07/14 14:03:28;;;;;;;;;;;26.20;61.60;;;;;;5051543;28;19916;-66
2022/07/14 14:05:55;;;;;;;;;;;26.30;62.30;;;;;;5064813;28;20349;-66
2022/07/14 14:08:22;;;;;;;;;;;27.00;61.30;;;;;;5069211;28;19919;-66
2022/07/14 14:10:47;;;;;;;;;;;27.30;61.20;;;;;;5066792;28;20019;-67
2022/07/14 14:13:13;;;;;;;;;;;28.10;60.00;;;;;;5069031;28;20424;-66
2022/07/14 14:15:39;;;;;;;;;;;29.00;60.50;;;;;;5070185;28;20279;-67
2022/07/14 14:18:05;;;;;;;;;;;28.30;59.80;;;;;;5051007;28;19939;-67
2022/07/14 14:20:30;;;;;;;;;;;28.40;59.70;;;;;;5047358;28;20007;-67
2022/07/14 14:22:56;;;;;;;;;;;29.20;61.00;;;;;;5064031;28;19916;-67
2022/07/14 14:25:21;;;;;;;;;;;30.20;58.90;;;;;;5069614;28;20014;-67
2022/07/14 14:27:47;;;;;;;;;;;30.80;58.40;;;;;;5069554;28;19913;-67